sensor_id;sensor_type;location;lat;lon;timestamp;P1;durP1;ratioP1;P2;durP2;ratioP2
23628;SDS011;11991;57.150;-2.134;2024-02-23T00:00:40;0.50;;;0.50;;
23628;SDS011;11991;57.150;-2.134;2024-02-23T00:03:08;0.50;;;0.50;;
23628;SDS011;11991;57.150;-2.134;2024-02-23T00:05:37;0.40;;;0.40;;
23628;SDS011;11991;57.150;-2.134;2024-02-23T00:08:04;0.40;;;0.40;;
23628;SDS011;11991;57.150;-2.134;2024-02-23T00:10:33;0.40;;;0.40;;
23628;SDS011;11991;57.150;-2.134;2024-02-23T00:13:00;0.77;;;0.47;;
23628;SDS011;11991;57.150;-2.134;2024-02-23T00:15:27;0.50;;;0.40;;
23628;SDS011;11991;57.150;-2.134;2024-02-23T00:17:54;0.50;;;0.40;;
23628;SDS011;11991;57.150;-2.134;2024-02-23T00:20:22;0.70;;;0.50;;
23628;SDS011;11991;57.150;-2.134;2024-02-23T00:22:49;0.67;;;0.50;;
23628;SDS011;11991;57.150;-2.134;2024-02-23T00:25:16;0.30;;;0.30;;
23628;SDS011;11991;57.150;-2.134;2024-02-23T00:27:44;0.40;;;0.40;;
23628;SDS011;11991;57.150;-2.134;2024-02-23T00:30:13;0.40;;;0.40;;
23628;SDS011;11991;57.150;-2.134;2024-02-23T00:32:41;0.37;;;0.37;;
23628;SDS011;11991;57.150;-2.134;2024-02-23T00:35:08;0.40;;;0.40;;
23628;SDS011;11991;57.150;-2.134;2024-02-23T00:37:35;0.83;;;0.40;;
23628;SDS011;11991;57.150;-2.134;2024-02-23T00:40:02;0.30;;;0.30;;
23628;SDS011;11991;57.150;-2.134;2024-02-23T00:42:31;0.40;;;0.40;;
23628;SDS011;11991;57.150;-2.134;2024-02-23T00:44:58;0.40;;;0.40;;
23628;SDS011;11991;57.150;-2.134;2024-02-23T00:47:26;0.40;;;0.40;;
23628;SDS011;11991;57.150;-2.134;2024-02-23T00:49:54;0.43;;;0.43;;
23628;SDS011;11991;57.150;-2.134;2024-02-23T00:52:21;0.30;;;0.30;;
23628;SDS011;11991;57.150;-2.134;2024-02-23T00:54:48;0.40;;;0.40;;
23628;SDS011;11991;57.150;-2.134;2024-02-23T00:57:15;0.30;;;0.30;;
23628;SDS011;11991;57.150;-2.134;2024-02-23T00:59:45;0.40;;;0.40;;
23628;SDS011;11991;57.150;-2.134;2024-02-23T01:02:13;0.30;;;0.30;;
23628;SDS011;11991;57.150;-2.134;2024-02-23T01:04:40;0.40;;;0.40;;
23628;SDS011;11991;57.150;-2.134;2024-02-23T01:07:08;0.30;;;0.30;;
23628;SDS011;11991;57.150;-2.134;2024-02-23T01:09:35;0.47;;;0.40;;
23628;SDS011;11991;57.150;-2.134;2024-02-23T01:12:02;0.30;;;0.30;;
23628;SDS011;11991;57.150;-2.134;2024-02-23T01:14:30;0.40;;;0.30;;
23628;SDS011;11991;57.150;-2.134;2024-02-23T01:16:57;0.40;;;0.40;;
23628;SDS011;11991;57.150;-2.134;2024-02-23T01:19:24;0.33;;;0.33;;
23628;SDS011;11991;57.150;-2.134;2024-02-23T01:21:51;0.30;;;0.30;;
23628;SDS011;11991;57.150;-2.134;2024-02-23T01:24:27;0.30;;;0.30;;
23628;SDS011;11991;57.150;-2.134;2024-02-23T01:26:55;0.30;;;0.30;;
23628;SDS011;11991;57.150;-2.134;2024-02-23T01:29:25;0.30;;;0.30;;
23628;SDS011;11991;57.150;-2.134;2024-02-23T01:31:53;0.30;;;0.30;;
23628;SDS011;11991;57.150;-2.134;2024-02-23T01:34:23;0.30;;;0.30;;
23628;SDS011;11991;57.150;-2.134;2024-02-23T01:36:50;0.43;;;0.40;;
23628;SDS011;11991;57.150;-2.134;2024-02-23T01:39:17;0.40;;;0.40;;
23628;SDS011;11991;57.150;-2.134;2024-02-23T01:41:45;0.33;;;0.33;;
23628;SDS011;11991;57.150;-2.134;2024-02-23T01:44:12;0.30;;;0.30;;
23628;SDS011;11991;57.150;-2.134;2024-02-23T01:46:41;0.30;;;0.30;;
23628;SDS011;11991;57.150;-2.134;2024-02-23T01:49:09;0.40;;;0.40;;
23628;SDS011;11991;57.150;-2.134;2024-02-23T01:51:36;0.40;;;0.40;;
23628;SDS011;11991;57.150;-2.134;2024-02-23T01:54:03;0.37;;;0.37;;
23628;SDS011;11991;57.150;-2.134;2024-02-23T01:56:31;0.30;;;0.30;;
23628;SDS011;11991;57.150;-2.134;2024-02-23T01:58:59;0.50;;;0.40;;
23628;SDS011;11991;57.150;-2.134;2024-02-23T02:01:30;0.40;;;0.37;;
23628;SDS011;11991;57.150;-2.134;2024-02-23T02:03:58;0.30;;;0.30;;
23628;SDS011;11991;57.150;-2.134;2024-02-23T02:06:25;0.40;;;0.40;;
23628;SDS011;11991;57.150;-2.134;2024-02-23T02:08:53;0.33;;;0.33;;
23628;SDS011;11991;57.150;-2.134;2024-02-23T02:11:20;0.40;;;0.40;;
23628;SDS011;11991;57.150;-2.134;2024-02-23T02:13:48;0.37;;;0.37;;
23628;SDS011;11991;57.150;-2.134;2024-02-23T02:16:15;0.40;;;0.40;;
23628;SDS011;11991;57.150;-2.134;2024-02-23T02:18:42;0.80;;;0.33;;
23628;SDS011;11991;57.150;-2.134;2024-02-23T02:21:11;0.37;;;0.37;;
23628;SDS011;11991;57.150;-2.134;2024-02-23T02:23:38;0.40;;;0.40;;
23628;SDS011;11991;57.150;-2.134;2024-02-23T02:26:06;0.30;;;0.30;;
23628;SDS011;11991;57.150;-2.134;2024-02-23T02:28:33;0.30;;;0.30;;
23628;SDS011;11991;57.150;-2.134;2024-02-23T02:31:01;0.50;;;0.30;;
23628;SDS011;11991;57.150;-2.134;2024-02-23T02:33:28;0.30;;;0.30;;
23628;SDS011;11991;57.150;-2.134;2024-02-23T02:35:55;0.30;;;0.30;;
23628;SDS011;11991;57.150;-2.134;2024-02-23T02:38:22;0.30;;;0.30;;
23628;SDS011;11991;57.150;-2.134;2024-02-23T02:40:49;0.30;;;0.30;;
23628;SDS011;11991;57.150;-2.134;2024-02-23T02:43:17;0.30;;;0.30;;
23628;SDS011;11991;57.150;-2.134;2024-02-23T02:45:44;0.30;;;0.30;;
23628;SDS011;11991;57.150;-2.134;2024-02-23T02:48:11;0.30;;;0.30;;
23628;SDS011;11991;57.150;-2.134;2024-02-23T02:50:39;0.30;;;0.30;;
23628;SDS011;11991;57.150;-2.134;2024-02-23T02:53:06;0.30;;;0.30;;
23628;SDS011;11991;57.150;-2.134;2024-02-23T02:55:33;0.30;;;0.30;;
23628;SDS011;11991;57.150;-2.134;2024-02-23T02:58:00;0.30;;;0.30;;
23628;SDS011;11991;57.150;-2.134;2024-02-23T03:00:28;0.30;;;0.30;;
23628;SDS011;11991;57.150;-2.134;2024-02-23T03:02:57;0.57;;;0.40;;
23628;SDS011;11991;57.150;-2.134;2024-02-23T03:05:24;0.30;;;0.30;;
23628;SDS011;11991;57.150;-2.134;2024-02-23T03:07:52;0.30;;;0.30;;
23628;SDS011;11991;57.150;-2.134;2024-02-23T03:10:19;0.40;;;0.40;;
23628;SDS011;11991;57.150;-2.134;2024-02-23T03:12:46;0.40;;;0.40;;
23628;SDS011;11991;57.150;-2.134;2024-02-23T03:15:14;0.40;;;0.40;;
23628;SDS011;11991;57.150;-2.134;2024-02-23T03:17:41;0.30;;;0.30;;
23628;SDS011;11991;57.150;-2.134;2024-02-23T03:20:09;0.40;;;0.40;;
23628;SDS011;11991;57.150;-2.134;2024-02-23T03:22:38;0.30;;;0.30;;
23628;SDS011;11991;57.150;-2.134;2024-02-23T03:25:06;0.30;;;0.30;;
23628;SDS011;11991;57.150;-2.134;2024-02-23T03:27:36;0.33;;;0.33;;
23628;SDS011;11991;57.150;-2.134;2024-02-23T03:30:04;0.30;;;0.30;;
23628;SDS011;11991;57.150;-2.134;2024-02-23T03:32:32;0.30;;;0.30;;
23628;SDS011;11991;57.150;-2.134;2024-02-23T03:35:03;0.30;;;0.30;;
23628;SDS011;11991;57.150;-2.134;2024-02-23T03:37:32;0.93;;;0.40;;
23628;SDS011;11991;57.150;-2.134;2024-02-23T03:39:59;0.30;;;0.30;;
23628;SDS011;11991;57.150;-2.134;2024-02-23T03:42:27;0.40;;;0.40;;
23628;SDS011;11991;57.150;-2.134;2024-02-23T03:44:54;0.97;;;0.60;;
23628;SDS011;11991;57.150;-2.134;2024-02-23T03:47:21;0.40;;;0.40;;
23628;SDS011;11991;57.150;-2.134;2024-02-23T03:49:49;0.40;;;0.40;;
23628;SDS011;11991;57.150;-2.134;2024-02-23T03:52:16;0.40;;;0.40;;
23628;SDS011;11991;57.150;-2.134;2024-02-23T03:54:43;0.30;;;0.30;;
23628;SDS011;11991;57.150;-2.134;2024-02-23T03:57:10;0.30;;;0.30;;
23628;SDS011;11991;57.150;-2.134;2024-02-23T03:59:37;0.33;;;0.33;;
23628;SDS011;11991;57.150;-2.134;2024-02-23T04:02:05;0.30;;;0.30;;
23628;SDS011;11991;57.150;-2.134;2024-02-23T04:04:33;0.40;;;0.40;;
23628;SDS011;11991;57.150;-2.134;2024-02-23T04:07:00;0.40;;;0.40;;
23628;SDS011;11991;57.150;-2.134;2024-02-23T04:09:27;0.30;;;0.30;;
23628;SDS011;11991;57.150;-2.134;2024-02-23T04:11:54;0.30;;;0.30;;
23628;SDS011;11991;57.150;-2.134;2024-02-23T04:14:22;0.40;;;0.40;;
23628;SDS011;11991;57.150;-2.134;2024-02-23T04:16:49;0.30;;;0.30;;
23628;SDS011;11991;57.150;-2.134;2024-02-23T04:19:17;0.43;;;0.30;;
23628;SDS011;11991;57.150;-2.134;2024-02-23T04:21:45;0.90;;;0.40;;
23628;SDS011;11991;57.150;-2.134;2024-02-23T04:24:12;0.40;;;0.40;;
23628;SDS011;11991;57.150;-2.134;2024-02-23T04:26:39;0.40;;;0.40;;
23628;SDS011;11991;57.150;-2.134;2024-02-23T04:29:06;0.40;;;0.40;;
23628;SDS011;11991;57.150;-2.134;2024-02-23T04:31:36;0.30;;;0.30;;
23628;SDS011;11991;57.150;-2.134;2024-02-23T04:34:04;0.30;;;0.30;;
23628;SDS011;11991;57.150;-2.134;2024-02-23T04:36:31;1.13;;;0.40;;
23628;SDS011;11991;57.150;-2.134;2024-02-23T04:38:58;0.30;;;0.30;;
23628;SDS011;11991;57.150;-2.134;2024-02-23T04:41:25;0.30;;;0.30;;
23628;SDS011;11991;57.150;-2.134;2024-02-23T04:43:53;0.30;;;0.30;;
23628;SDS011;11991;57.150;-2.134;2024-02-23T04:46:28;0.37;;;0.37;;
23628;SDS011;11991;57.150;-2.134;2024-02-23T04:48:57;0.30;;;0.30;;
23628;SDS011;11991;57.150;-2.134;2024-02-23T04:51:24;0.30;;;0.30;;
23628;SDS011;11991;57.150;-2.134;2024-02-23T04:53:51;0.70;;;0.40;;
23628;SDS011;11991;57.150;-2.134;2024-02-23T04:56:18;0.30;;;0.30;;
23628;SDS011;11991;57.150;-2.134;2024-02-23T04:58:49;0.40;;;0.40;;
23628;SDS011;11991;57.150;-2.134;2024-02-23T05:01:17;0.30;;;0.30;;
23628;SDS011;11991;57.150;-2.134;2024-02-23T05:03:44;0.40;;;0.40;;
23628;SDS011;11991;57.150;-2.134;2024-02-23T05:06:12;0.40;;;0.40;;
23628;SDS011;11991;57.150;-2.134;2024-02-23T05:08:41;0.70;;;0.33;;
23628;SDS011;11991;57.150;-2.134;2024-02-23T05:11:09;0.40;;;0.40;;
23628;SDS011;11991;57.150;-2.134;2024-02-23T05:13:38;0.40;;;0.40;;
23628;SDS011;11991;57.150;-2.134;2024-02-23T05:16:08;0.40;;;0.40;;
23628;SDS011;11991;57.150;-2.134;2024-02-23T05:18:35;0.30;;;0.30;;
23628;SDS011;11991;57.150;-2.134;2024-02-23T05:21:02;0.30;;;0.30;;
23628;SDS011;11991;57.150;-2.134;2024-02-23T05:23:30;0.40;;;0.40;;
23628;SDS011;11991;57.150;-2.134;2024-02-23T05:25:57;0.40;;;0.40;;
23628;SDS011;11991;57.150;-2.134;2024-02-23T05:28:24;0.30;;;0.30;;
23628;SDS011;11991;57.150;-2.134;2024-02-23T05:30:51;0.43;;;0.43;;
23628;SDS011;11991;57.150;-2.134;2024-02-23T05:33:18;0.30;;;0.30;;
23628;SDS011;11991;57.150;-2.134;2024-02-23T05:35:47;0.30;;;0.30;;
23628;SDS011;11991;57.150;-2.134;2024-02-23T05:38:17;0.30;;;0.30;;
23628;SDS011;11991;57.150;-2.134;2024-02-23T05:40:45;0.30;;;0.30;;
23628;SDS011;11991;57.150;-2.134;2024-02-23T05:43:12;0.30;;;0.30;;
23628;SDS011;11991;57.150;-2.134;2024-02-23T05:45:39;0.40;;;0.40;;
23628;SDS011;11991;57.150;-2.134;2024-02-23T05:48:07;0.30;;;0.30;;
23628;SDS011;11991;57.150;-2.134;2024-02-23T05:50:34;0.40;;;0.40;;
23628;SDS011;11991;57.150;-2.134;2024-02-23T05:53:01;0.40;;;0.40;;
23628;SDS011;11991;57.150;-2.134;2024-02-23T05:55:31;0.40;;;0.40;;
23628;SDS011;11991;57.150;-2.134;2024-02-23T05:57:58;0.40;;;0.40;;
23628;SDS011;11991;57.150;-2.134;2024-02-23T06:00:25;0.40;;;0.40;;
23628;SDS011;11991;57.150;-2.134;2024-02-23T06:02:53;0.50;;;0.50;;
23628;SDS011;11991;57.150;-2.134;2024-02-23T06:05:20;0.40;;;0.40;;
23628;SDS011;11991;57.150;-2.134;2024-02-23T06:07:47;0.30;;;0.30;;
23628;SDS011;11991;57.150;-2.134;2024-02-23T06:10:14;0.93;;;0.53;;
23628;SDS011;11991;57.150;-2.134;2024-02-23T06:12:42;0.40;;;0.40;;
23628;SDS011;11991;57.150;-2.134;2024-02-23T06:15:09;0.50;;;0.50;;
23628;SDS011;11991;57.150;-2.134;2024-02-23T06:17:37;0.50;;;0.50;;
23628;SDS011;11991;57.150;-2.134;2024-02-23T06:20:06;0.50;;;0.50;;
23628;SDS011;11991;57.150;-2.134;2024-02-23T06:22:34;0.47;;;0.47;;
23628;SDS011;11991;57.150;-2.134;2024-02-23T06:25:02;0.50;;;0.50;;
23628;SDS011;11991;57.150;-2.134;2024-02-23T06:27:29;0.50;;;0.50;;
23628;SDS011;11991;57.150;-2.134;2024-02-23T06:29:56;0.43;;;0.40;;
23628;SDS011;11991;57.150;-2.134;2024-02-23T06:32:23;1.03;;;0.97;;
23628;SDS011;11991;57.150;-2.134;2024-02-23T06:34:51;0.57;;;0.50;;
23628;SDS011;11991;57.150;-2.134;2024-02-23T06:37:18;0.50;;;0.50;;
23628;SDS011;11991;57.150;-2.134;2024-02-23T06:39:45;0.50;;;0.50;;
23628;SDS011;11991;57.150;-2.134;2024-02-23T06:42:17;0.60;;;0.60;;
23628;SDS011;11991;57.150;-2.134;2024-02-23T06:44:45;0.50;;;0.50;;
23628;SDS011;11991;57.150;-2.134;2024-02-23T06:47:12;0.60;;;0.60;;
23628;SDS011;11991;57.150;-2.134;2024-02-23T06:49:42;0.80;;;0.60;;
23628;SDS011;11991;57.150;-2.134;2024-02-23T06:52:11;0.60;;;0.60;;
23628;SDS011;11991;57.150;-2.134;2024-02-23T06:54:39;0.60;;;0.50;;
23628;SDS011;11991;57.150;-2.134;2024-02-23T06:57:06;0.60;;;0.60;;
23628;SDS011;11991;57.150;-2.134;2024-02-23T06:59:37;1.13;;;0.80;;
23628;SDS011;11991;57.150;-2.134;2024-02-23T07:02:04;0.40;;;0.40;;
23628;SDS011;11991;57.150;-2.134;2024-02-23T07:04:31;0.70;;;0.60;;
23628;SDS011;11991;57.150;-2.134;2024-02-23T07:07:00;0.80;;;0.80;;
23628;SDS011;11991;57.150;-2.134;2024-02-23T07:09:33;0.50;;;0.50;;
23628;SDS011;11991;57.150;-2.134;2024-02-23T07:12:01;0.50;;;0.50;;
23628;SDS011;11991;57.150;-2.134;2024-02-23T07:14:28;0.70;;;0.70;;
23628;SDS011;11991;57.150;-2.134;2024-02-23T07:16:55;0.77;;;0.70;;
23628;SDS011;11991;57.150;-2.134;2024-02-23T07:19:23;0.80;;;0.80;;
23628;SDS011;11991;57.150;-2.134;2024-02-23T07:21:50;0.60;;;0.60;;
23628;SDS011;11991;57.150;-2.134;2024-02-23T07:24:17;0.70;;;0.70;;
23628;SDS011;11991;57.150;-2.134;2024-02-23T07:26:44;0.57;;;0.50;;
23628;SDS011;11991;57.150;-2.134;2024-02-23T07:29:12;1.00;;;0.90;;
23628;SDS011;11991;57.150;-2.134;2024-02-23T07:31:42;0.80;;;0.80;;
23628;SDS011;11991;57.150;-2.134;2024-02-23T07:34:09;0.97;;;0.77;;
23628;SDS011;11991;57.150;-2.134;2024-02-23T07:36:36;0.60;;;0.60;;
23628;SDS011;11991;57.150;-2.134;2024-02-23T07:39:03;0.80;;;0.77;;
23628;SDS011;11991;57.150;-2.134;2024-02-23T07:41:31;0.50;;;0.50;;
23628;SDS011;11991;57.150;-2.134;2024-02-23T07:43:58;0.60;;;0.60;;
23628;SDS011;11991;57.150;-2.134;2024-02-23T07:46:25;0.50;;;0.50;;
23628;SDS011;11991;57.150;-2.134;2024-02-23T07:48:54;0.50;;;0.50;;
23628;SDS011;11991;57.150;-2.134;2024-02-23T07:51:22;1.00;;;0.60;;
23628;SDS011;11991;57.150;-2.134;2024-02-23T07:53:49;1.20;;;1.10;;
23628;SDS011;11991;57.150;-2.134;2024-02-23T07:56:16;0.70;;;0.70;;
23628;SDS011;11991;57.150;-2.134;2024-02-23T07:58:44;1.73;;;1.00;;
23628;SDS011;11991;57.150;-2.134;2024-02-23T08:01:11;0.90;;;0.90;;
23628;SDS011;11991;57.150;-2.134;2024-02-23T08:03:38;1.23;;;1.10;;
23628;SDS011;11991;57.150;-2.134;2024-02-23T08:06:09;1.20;;;1.10;;
23628;SDS011;11991;57.150;-2.134;2024-02-23T08:08:36;1.50;;;1.33;;
23628;SDS011;11991;57.150;-2.134;2024-02-23T08:11:03;1.23;;;1.10;;
23628;SDS011;11991;57.150;-2.134;2024-02-23T08:13:31;1.13;;;1.03;;
23628;SDS011;11991;57.150;-2.134;2024-02-23T08:15:58;1.73;;;1.10;;
23628;SDS011;11991;57.150;-2.134;2024-02-23T08:18:25;1.70;;;0.83;;
23628;SDS011;11991;57.150;-2.134;2024-02-23T08:20:53;0.40;;;0.40;;
23628;SDS011;11991;57.150;-2.134;2024-02-23T08:23:21;0.87;;;0.43;;
23628;SDS011;11991;57.150;-2.134;2024-02-23T08:25:49;0.43;;;0.43;;
23628;SDS011;11991;57.150;-2.134;2024-02-23T08:28:17;0.40;;;0.40;;
23628;SDS011;11991;57.150;-2.134;2024-02-23T08:30:44;0.40;;;0.40;;
23628;SDS011;11991;57.150;-2.134;2024-02-23T08:33:11;0.30;;;0.30;;
23628;SDS011;11991;57.150;-2.134;2024-02-23T08:35:38;0.30;;;0.30;;
23628;SDS011;11991;57.150;-2.134;2024-02-23T08:38:06;0.40;;;0.40;;
23628;SDS011;11991;57.150;-2.134;2024-02-23T08:40:34;0.40;;;0.40;;
23628;SDS011;11991;57.150;-2.134;2024-02-23T08:43:01;0.40;;;0.40;;
23628;SDS011;11991;57.150;-2.134;2024-02-23T08:45:29;0.30;;;0.30;;
23628;SDS011;11991;57.150;-2.134;2024-02-23T08:47:56;0.30;;;0.30;;
23628;SDS011;11991;57.150;-2.134;2024-02-23T08:50:24;0.60;;;0.60;;
23628;SDS011;11991;57.150;-2.134;2024-02-23T08:52:51;0.40;;;0.40;;
23628;SDS011;11991;57.150;-2.134;2024-02-23T08:55:19;0.30;;;0.30;;
23628;SDS011;11991;57.150;-2.134;2024-02-23T08:57:46;0.37;;;0.37;;
23628;SDS011;11991;57.150;-2.134;2024-02-23T09:00:13;0.40;;;0.40;;
23628;SDS011;11991;57.150;-2.134;2024-02-23T09:02:44;0.30;;;0.30;;
23628;SDS011;11991;57.150;-2.134;2024-02-23T09:05:11;0.30;;;0.30;;
23628;SDS011;11991;57.150;-2.134;2024-02-23T09:07:38;0.30;;;0.30;;
23628;SDS011;11991;57.150;-2.134;2024-02-23T09:10:06;0.30;;;0.30;;
23628;SDS011;11991;57.150;-2.134;2024-02-23T09:12:34;0.30;;;0.30;;
23628;SDS011;11991;57.150;-2.134;2024-02-23T09:15:01;0.30;;;0.30;;
23628;SDS011;11991;57.150;-2.134;2024-02-23T09:17:28;0.30;;;0.30;;
23628;SDS011;11991;57.150;-2.134;2024-02-23T09:19:56;0.30;;;0.30;;
23628;SDS011;11991;57.150;-2.134;2024-02-23T09:22:23;0.30;;;0.30;;
23628;SDS011;11991;57.150;-2.134;2024-02-23T09:24:50;0.40;;;0.40;;
23628;SDS011;11991;57.150;-2.134;2024-02-23T09:27:20;0.60;;;0.60;;
23628;SDS011;11991;57.150;-2.134;2024-02-23T09:29:47;0.70;;;0.63;;
23628;SDS011;11991;57.150;-2.134;2024-02-23T09:32:15;0.50;;;0.50;;
23628;SDS011;11991;57.150;-2.134;2024-02-23T09:34:42;0.40;;;0.40;;
23628;SDS011;11991;57.150;-2.134;2024-02-23T09:37:10;0.30;;;0.30;;
23628;SDS011;11991;57.150;-2.134;2024-02-23T09:39:37;0.40;;;0.40;;
23628;SDS011;11991;57.150;-2.134;2024-02-23T09:42:05;0.30;;;0.30;;
23628;SDS011;11991;57.150;-2.134;2024-02-23T09:44:36;0.30;;;0.30;;
23628;SDS011;11991;57.150;-2.134;2024-02-23T09:47:04;0.30;;;0.30;;
23628;SDS011;11991;57.150;-2.134;2024-02-23T09:49:40;0.30;;;0.30;;
23628;SDS011;11991;57.150;-2.134;2024-02-23T09:52:07;0.70;;;0.30;;
23628;SDS011;11991;57.150;-2.134;2024-02-23T09:54:38;0.30;;;0.30;;
23628;SDS011;11991;57.150;-2.134;2024-02-23T09:57:06;0.63;;;0.37;;
23628;SDS011;11991;57.150;-2.134;2024-02-23T09:59:35;0.75;;;0.40;;
23628;SDS011;11991;57.150;-2.134;2024-02-23T10:02:07;1.40;;;0.53;;
23628;SDS011;11991;57.150;-2.134;2024-02-23T10:04:38;0.30;;;0.30;;
23628;SDS011;11991;57.150;-2.134;2024-02-23T10:07:07;0.37;;;0.37;;
23628;SDS011;11991;57.150;-2.134;2024-02-23T10:09:35;0.38;;;0.30;;
23628;SDS011;11991;57.150;-2.134;2024-02-23T10:12:02;0.30;;;0.30;;
23628;SDS011;11991;57.150;-2.134;2024-02-23T10:14:30;0.57;;;0.57;;
23628;SDS011;11991;57.150;-2.134;2024-02-23T10:16:57;0.87;;;0.40;;
23628;SDS011;11991;57.150;-2.134;2024-02-23T10:19:25;0.50;;;0.40;;
23628;SDS011;11991;57.150;-2.134;2024-02-23T10:21:55;0.40;;;0.40;;
23628;SDS011;11991;57.150;-2.134;2024-02-23T10:24:23;0.30;;;0.30;;
23628;SDS011;11991;57.150;-2.134;2024-02-23T10:26:53;0.30;;;0.30;;
23628;SDS011;11991;57.150;-2.134;2024-02-23T10:29:23;0.30;;;0.30;;
23628;SDS011;11991;57.150;-2.134;2024-02-23T10:31:51;0.40;;;0.40;;
23628;SDS011;11991;57.150;-2.134;2024-02-23T10:34:19;0.35;;;0.35;;
23628;SDS011;11991;57.150;-2.134;2024-02-23T10:36:47;0.40;;;0.40;;
23628;SDS011;11991;57.150;-2.134;2024-02-23T10:39:17;0.40;;;0.40;;
23628;SDS011;11991;57.150;-2.134;2024-02-23T10:42:08;1.05;;;0.60;;
23628;SDS011;11991;57.150;-2.134;2024-02-23T10:44:35;1.20;;;0.40;;
23628;SDS011;11991;57.150;-2.134;2024-02-23T10:47:04;0.55;;;0.35;;
23628;SDS011;11991;57.150;-2.134;2024-02-23T10:49:31;0.40;;;0.40;;
23628;SDS011;11991;57.150;-2.134;2024-02-23T10:52:00;0.30;;;0.30;;
23628;SDS011;11991;57.150;-2.134;2024-02-23T10:54:29;0.30;;;0.30;;
23628;SDS011;11991;57.150;-2.134;2024-02-23T10:56:58;0.40;;;0.40;;
23628;SDS011;11991;57.150;-2.134;2024-02-23T10:59:25;0.40;;;0.40;;
23628;SDS011;11991;57.150;-2.134;2024-02-23T11:01:53;0.30;;;0.30;;
23628;SDS011;11991;57.150;-2.134;2024-02-23T11:04:26;1.08;;;0.35;;
23628;SDS011;11991;57.150;-2.134;2024-02-23T11:06:55;0.30;;;0.30;;
23628;SDS011;11991;57.150;-2.134;2024-02-23T11:09:26;0.50;;;0.30;;
23628;SDS011;11991;57.150;-2.134;2024-02-23T11:11:54;1.75;;;0.50;;
23628;SDS011;11991;57.150;-2.134;2024-02-23T11:17:02;6.85;;;0.85;;
23628;SDS011;11991;57.150;-2.134;2024-02-23T11:19:34;0.75;;;0.35;;
23628;SDS011;11991;57.150;-2.134;2024-02-23T11:22:03;0.40;;;0.40;;
23628;SDS011;11991;57.150;-2.134;2024-02-23T11:24:34;1.02;;;0.32;;
23628;SDS011;11991;57.150;-2.134;2024-02-23T11:27:01;0.30;;;0.30;;
23628;SDS011;11991;57.150;-2.134;2024-02-23T11:29:37;0.30;;;0.30;;
23628;SDS011;11991;57.150;-2.134;2024-02-23T11:32:13;0.98;;;0.45;;
23628;SDS011;11991;57.150;-2.134;2024-02-23T11:34:41;0.40;;;0.30;;
23628;SDS011;11991;57.150;-2.134;2024-02-23T11:37:11;0.40;;;0.40;;
23628;SDS011;11991;57.150;-2.134;2024-02-23T11:39:41;0.50;;;0.40;;
23628;SDS011;11991;57.150;-2.134;2024-02-23T11:42:09;0.30;;;0.30;;
23628;SDS011;11991;57.150;-2.134;2024-02-23T11:44:36;0.30;;;0.30;;
23628;SDS011;11991;57.150;-2.134;2024-02-23T11:47:03;0.40;;;0.40;;
23628;SDS011;11991;57.150;-2.134;2024-02-23T11:49:31;1.13;;;0.40;;
23628;SDS011;11991;57.150;-2.134;2024-02-23T11:51:59;0.45;;;0.40;;
23628;SDS011;11991;57.150;-2.134;2024-02-23T11:54:27;0.30;;;0.30;;
23628;SDS011;11991;57.150;-2.134;2024-02-23T11:56:54;0.30;;;0.30;;
23628;SDS011;11991;57.150;-2.134;2024-02-23T11:59:22;0.40;;;0.40;;
23628;SDS011;11991;57.150;-2.134;2024-02-23T12:01:51;0.30;;;0.30;;
23628;SDS011;11991;57.150;-2.134;2024-02-23T12:04:18;0.40;;;0.40;;
23628;SDS011;11991;57.150;-2.134;2024-02-23T12:06:46;0.25;;;0.25;;
23628;SDS011;11991;57.150;-2.134;2024-02-23T12:09:14;1.17;;;0.45;;
23628;SDS011;11991;57.150;-2.134;2024-02-23T12:11:42;2.05;;;0.40;;
23628;SDS011;11991;57.150;-2.134;2024-02-23T12:14:09;0.40;;;0.40;;
23628;SDS011;11991;57.150;-2.134;2024-02-23T12:16:39;0.40;;;0.40;;
23628;SDS011;11991;57.150;-2.134;2024-02-23T12:19:07;1.27;;;0.55;;
23628;SDS011;11991;57.150;-2.134;2024-02-23T12:21:35;0.40;;;0.40;;
23628;SDS011;11991;57.150;-2.134;2024-02-23T12:24:06;0.30;;;0.30;;
23628;SDS011;11991;57.150;-2.134;2024-02-23T12:26:36;0.38;;;0.38;;
23628;SDS011;11991;57.150;-2.134;2024-02-23T12:29:03;1.05;;;0.40;;
23628;SDS011;11991;57.150;-2.134;2024-02-23T12:31:32;2.03;;;0.45;;
23628;SDS011;11991;57.150;-2.134;2024-02-23T12:33:59;0.77;;;0.30;;
23628;SDS011;11991;57.150;-2.134;2024-02-23T12:36:27;1.77;;;0.50;;
23628;SDS011;11991;57.150;-2.134;2024-02-23T12:38:55;0.60;;;0.45;;
23628;SDS011;11991;57.150;-2.134;2024-02-23T12:41:22;0.50;;;0.45;;
23628;SDS011;11991;57.150;-2.134;2024-02-23T12:43:49;0.30;;;0.30;;
23628;SDS011;11991;57.150;-2.134;2024-02-23T12:46:17;0.52;;;0.43;;
23628;SDS011;11991;57.150;-2.134;2024-02-23T12:48:44;0.30;;;0.30;;
23628;SDS011;11991;57.150;-2.134;2024-02-23T12:51:11;0.40;;;0.40;;
23628;SDS011;11991;57.150;-2.134;2024-02-23T12:53:39;0.40;;;0.40;;
23628;SDS011;11991;57.150;-2.134;2024-02-23T12:56:09;4.72;;;0.70;;
23628;SDS011;11991;57.150;-2.134;2024-02-23T12:58:40;0.57;;;0.30;;
23628;SDS011;11991;57.150;-2.134;2024-02-23T13:01:10;1.30;;;0.40;;
23628;SDS011;11991;57.150;-2.134;2024-02-23T13:03:38;0.35;;;0.32;;
23628;SDS011;11991;57.150;-2.134;2024-02-23T13:06:09;0.30;;;0.30;;
23628;SDS011;11991;57.150;-2.134;2024-02-23T13:08:36;1.67;;;1.17;;
23628;SDS011;11991;57.150;-2.134;2024-02-23T13:11:05;0.40;;;0.35;;
23628;SDS011;11991;57.150;-2.134;2024-02-23T13:13:33;0.50;;;0.40;;
23628;SDS011;11991;57.150;-2.134;2024-02-23T13:16:00;0.45;;;0.30;;
23628;SDS011;11991;57.150;-2.134;2024-02-23T13:18:28;0.30;;;0.30;;
23628;SDS011;11991;57.150;-2.134;2024-02-23T13:20:55;0.30;;;0.30;;
23628;SDS011;11991;57.150;-2.134;2024-02-23T13:23:22;0.25;;;0.20;;
23628;SDS011;11991;57.150;-2.134;2024-02-23T13:25:49;0.20;;;0.20;;
23628;SDS011;11991;57.150;-2.134;2024-02-23T13:28:17;0.68;;;0.40;;
23628;SDS011;11991;57.150;-2.134;2024-02-23T13:30:44;0.32;;;0.32;;
23628;SDS011;11991;57.150;-2.134;2024-02-23T13:33:11;0.30;;;0.30;;
23628;SDS011;11991;57.150;-2.134;2024-02-23T13:35:39;0.30;;;0.30;;
23628;SDS011;11991;57.150;-2.134;2024-02-23T13:38:06;0.55;;;0.40;;
23628;SDS011;11991;57.150;-2.134;2024-02-23T13:40:34;0.68;;;0.30;;
23628;SDS011;11991;57.150;-2.134;2024-02-23T13:43:01;0.32;;;0.30;;
23628;SDS011;11991;57.150;-2.134;2024-02-23T13:45:28;0.30;;;0.30;;
23628;SDS011;11991;57.150;-2.134;2024-02-23T13:47:56;0.22;;;0.22;;
23628;SDS011;11991;57.150;-2.134;2024-02-23T13:50:28;0.30;;;0.30;;
23628;SDS011;11991;57.150;-2.134;2024-02-23T13:52:56;0.40;;;0.40;;
23628;SDS011;11991;57.150;-2.134;2024-02-23T13:55:24;0.30;;;0.30;;
23628;SDS011;11991;57.150;-2.134;2024-02-23T13:57:51;0.32;;;0.32;;
23628;SDS011;11991;57.150;-2.134;2024-02-23T14:00:19;0.20;;;0.20;;
23628;SDS011;11991;57.150;-2.134;2024-02-23T14:02:47;0.20;;;0.20;;
23628;SDS011;11991;57.150;-2.134;2024-02-23T14:05:15;0.40;;;0.30;;
23628;SDS011;11991;57.150;-2.134;2024-02-23T14:07:45;0.47;;;0.38;;
23628;SDS011;11991;57.150;-2.134;2024-02-23T14:10:12;0.40;;;0.40;;
23628;SDS011;11991;57.150;-2.134;2024-02-23T14:12:40;0.20;;;0.20;;
23628;SDS011;11991;57.150;-2.134;2024-02-23T14:15:08;0.25;;;0.25;;
23628;SDS011;11991;57.150;-2.134;2024-02-23T14:17:37;1.33;;;0.60;;
23628;SDS011;11991;57.150;-2.134;2024-02-23T14:20:04;2.13;;;0.45;;
23628;SDS011;11991;57.150;-2.134;2024-02-23T14:22:33;0.40;;;0.30;;
23628;SDS011;11991;57.150;-2.134;2024-02-23T14:25:00;0.35;;;0.35;;
23628;SDS011;11991;57.150;-2.134;2024-02-23T14:27:28;0.30;;;0.30;;
23628;SDS011;11991;57.150;-2.134;2024-02-23T14:29:57;0.82;;;0.40;;
23628;SDS011;11991;57.150;-2.134;2024-02-23T14:32:25;1.33;;;0.40;;
23628;SDS011;11991;57.150;-2.134;2024-02-23T14:34:52;0.68;;;0.38;;
23628;SDS011;11991;57.150;-2.134;2024-02-23T14:37:19;0.30;;;0.30;;
23628;SDS011;11991;57.150;-2.134;2024-02-23T14:39:47;0.38;;;0.38;;